Other Surface Observations
Issued by NWS Great Falls, MT

Home | Current Version | Previous Version | Text Only | Print | Product List | Glossary On
Versions: 1 2 3 4 5 6 7 8 9 10 11 12 13 14 15 16 17 18 19 20 21 22 23 24 25 26 27 28 29 30 31 32 33 34 35 36 37 38 39 40 41 42 43 44 45 46 47 48 49 50
122
SXUS55 KTFX 230129
OSOTFX
AREA AWOS OBSERVATIONS
NATIONAL WEATHER SERVICE GREAT FALLS MT
0629 PM MST WED FEB 22 2017

METAR KPWD 230130Z AUTO 00000KT 9SM 01/M04 A2998 RMK PLENTYWOOD
METAR KPO1 230130Z AUTO 00000KT 10SM M01/M04 A3001 RMK POPLAR
METAR K1S3 230130Z AUTO 07005KT 10SM 01/M01 A2995 RMK FORSYTH
METAR KS71 230130Z AUTO 00000KT 10SM 01/M03 A2998 RMK CHINOOK
METAR K79S 230130Z AUTO 10SM 02/M01 A2996 RMK FORT BENTON
METAR K38S 230130Z AUTO 01006KT 10SM M01/M04 A2989 RMK DEER LODGE
METAR K3U3 230130Z AUTO 26006KT 10SM M02/M04 A2985 RMK ANACONDA
METAR K6S5 230130Z AUTO 31006KT 10SM 01/M04 A2991 RMK HAMILTON
METAR KS59 230130Z AUTO 11004KT 10SM 01/M02 A2996 RMK LIBBY
METAR K88M 230130Z AUTO 00000KT 10SM 01/M02 A2996 RMK EUREKA



USA.gov is the U.S. government's official web portal to all federal, state and local government web resources and services.